sensor_id;sensor_type;location;lat;lon;timestamp;pressure;altitude;pressure_sealevel;temperature;humidity
32083;BME280;18597;48.328;7.932;2023-11-21T00:02:21;99032.00;;;8.77;100.00
32083;BME280;18597;48.328;7.932;2023-11-21T00:04:48;99031.56;;;8.81;100.00
32083;BME280;18597;48.328;7.932;2023-11-21T00:07:14;99022.75;;;8.81;100.00
32083;BME280;18597;48.328;7.932;2023-11-21T00:09:41;99014.06;;;8.88;100.00
32083;BME280;18597;48.328;7.932;2023-11-21T00:12:08;99016.59;;;8.90;100.00
32083;BME280;18597;48.328;7.932;2023-11-21T00:14:37;99014.91;;;8.89;100.00
32083;BME280;18597;48.328;7.932;2023-11-21T00:17:04;99024.22;;;9.04;100.00
32083;BME280;18597;48.328;7.932;2023-11-21T00:19:31;99006.81;;;9.00;100.00
32083;BME280;18597;48.328;7.932;2023-11-21T00:21:57;99010.19;;;8.93;100.00
32083;BME280;18597;48.328;7.932;2023-11-21T00:24:24;99010.44;;;8.99;100.00
32083;BME280;18597;48.328;7.932;2023-11-21T00:26:51;99010.44;;;8.99;100.00
32083;BME280;18597;48.328;7.932;2023-11-21T00:29:17;99012.41;;;8.97;100.00
32083;BME280;18597;48.328;7.932;2023-11-21T00:31:44;98998.25;;;9.06;100.00
32083;BME280;18597;48.328;7.932;2023-11-21T00:34:12;99004.63;;;9.15;100.00
32083;BME280;18597;48.328;7.932;2023-11-21T00:36:38;99005.56;;;9.04;100.00
32083;BME280;18597;48.328;7.932;2023-11-21T00:39:04;99011.19;;;9.11;100.00
32083;BME280;18597;48.328;7.932;2023-11-21T00:41:32;99012.72;;;9.04;100.00
32083;BME280;18597;48.328;7.932;2023-11-21T00:43:58;99006.56;;;9.13;100.00
32083;BME280;18597;48.328;7.932;2023-11-21T00:46:25;99003.59;;;9.06;100.00
32083;BME280;18597;48.328;7.932;2023-11-21T00:48:53;99009.78;;;9.07;100.00
32083;BME280;18597;48.328;7.932;2023-11-21T00:51:20;99006.81;;;9.00;100.00
32083;BME280;18597;48.328;7.932;2023-11-21T00:53:47;99016.06;;;8.96;100.00
32083;BME280;18597;48.328;7.932;2023-11-21T00:56:13;99014.81;;;9.00;100.00
32083;BME280;18597;48.328;7.932;2023-11-21T00:58:39;99012.25;;;8.99;100.00
32083;BME280;18597;48.328;7.932;2023-11-21T01:01:09;99011.31;;;9.00;100.00
32083;BME280;18597;48.328;7.932;2023-11-21T01:03:35;99013.22;;;8.88;100.00
32083;BME280;18597;48.328;7.932;2023-11-21T01:06:01;99012.25;;;8.89;100.00
32083;BME280;18597;48.328;7.932;2023-11-21T01:08:27;99011.56;;;8.87;100.00
32083;BME280;18597;48.328;7.932;2023-11-21T01:10:54;99020.25;;;8.89;100.00
32083;BME280;18597;48.328;7.932;2023-11-21T01:13:20;99012.69;;;8.84;100.00
32083;BME280;18597;48.328;7.932;2023-11-21T01:15:46;99024.41;;;8.82;100.00
32083;BME280;18597;48.328;7.932;2023-11-21T01:18:12;99021.06;;;8.80;100.00
32083;BME280;18597;48.328;7.932;2023-11-21T01:20:38;99022.59;;;8.82;100.00
32083;BME280;18597;48.328;7.932;2023-11-21T01:23:04;99022.34;;;8.85;100.00
32083;BME280;18597;48.328;7.932;2023-11-21T01:25:30;99020.91;;;8.81;100.00
32083;BME280;18597;48.328;7.932;2023-11-21T01:27:56;99029.50;;;8.85;100.00
32083;BME280;18597;48.328;7.932;2023-11-21T01:30:22;99024.44;;;8.92;100.00
32083;BME280;18597;48.328;7.932;2023-11-21T01:32:47;99022.91;;;8.89;100.00
32083;BME280;18597;48.328;7.932;2023-11-21T01:35:13;99020.25;;;8.89;100.00
32083;BME280;18597;48.328;7.932;2023-11-21T01:37:39;99016.28;;;8.83;100.00
32083;BME280;18597;48.328;7.932;2023-11-21T01:40:06;99027.78;;;8.84;100.00
32083;BME280;18597;48.328;7.932;2023-11-21T01:42:35;99016.28;;;8.83;100.00
32083;BME280;18597;48.328;7.932;2023-11-21T01:45:03;99018.84;;;8.85;100.00
32083;BME280;18597;48.328;7.932;2023-11-21T01:47:32;99022.03;;;8.79;100.00
32083;BME280;18597;48.328;7.932;2023-11-21T01:49:58;99025.38;;;8.71;100.00
32083;BME280;18597;48.328;7.932;2023-11-21T01:52:24;99023.25;;;8.65;100.00
32083;BME280;18597;48.328;7.932;2023-11-21T01:54:51;99007.81;;;8.69;100.00
32083;BME280;18597;48.328;7.932;2023-11-21T01:57:19;99016.84;;;8.77;100.00
32083;BME280;18597;48.328;7.932;2023-11-21T01:59:47;99013.16;;;8.69;100.00
32083;BME280;18597;48.328;7.932;2023-11-21T02:02:14;99008.81;;;8.68;100.00
32083;BME280;18597;48.328;7.932;2023-11-21T02:04:41;99003.78;;;8.74;100.00
32083;BME280;18597;48.328;7.932;2023-11-21T02:07:07;99016.25;;;8.74;100.00
32083;BME280;18597;48.328;7.932;2023-11-21T02:09:33;99017.94;;;8.75;100.00
32083;BME280;18597;48.328;7.932;2023-11-21T02:12:00;99014.31;;;8.76;100.00
32083;BME280;18597;48.328;7.932;2023-11-21T02:14:26;99018.53;;;8.78;100.00
32083;BME280;18597;48.328;7.932;2023-11-21T02:16:54;99025.09;;;8.74;100.00
32083;BME280;18597;48.328;7.932;2023-11-21T02:19:22;99015.56;;;8.72;100.00
32083;BME280;18597;48.328;7.932;2023-11-21T02:21:52;99020.44;;;8.67;100.00
32083;BME280;18597;48.328;7.932;2023-11-21T02:24:21;99024.91;;;8.66;100.00
32083;BME280;18597;48.328;7.932;2023-11-21T02:26:48;99023.88;;;8.78;100.00
32083;BME280;18597;48.328;7.932;2023-11-21T02:29:14;99018.84;;;8.85;100.00
32083;BME280;18597;48.328;7.932;2023-11-21T02:31:43;99013.59;;;8.74;100.00
32083;BME280;18597;48.328;7.932;2023-11-21T02:34:17;99016.00;;;8.77;100.00
32083;BME280;18597;48.328;7.932;2023-11-21T02:36:44;99011.81;;;8.84;100.00
32083;BME280;18597;48.328;7.932;2023-11-21T02:39:11;99006.91;;;8.79;100.00
32083;BME280;18597;48.328;7.932;2023-11-21T02:41:38;98997.78;;;8.82;100.00
32083;BME280;18597;48.328;7.932;2023-11-21T02:44:06;98994.47;;;8.99;100.00
32083;BME280;18597;48.328;7.932;2023-11-21T02:46:34;98994.44;;;8.89;100.00
32083;BME280;18597;48.328;7.932;2023-11-21T02:49:03;99009.03;;;8.85;100.00
32083;BME280;18597;48.328;7.932;2023-11-21T02:51:30;98999.91;;;8.88;100.00
32083;BME280;18597;48.328;7.932;2023-11-21T02:53:56;99003.69;;;8.85;100.00
32083;BME280;18597;48.328;7.932;2023-11-21T02:56:26;99008.03;;;8.77;100.00
32083;BME280;18597;48.328;7.932;2023-11-21T02:58:55;98996.63;;;8.75;100.00
32083;BME280;18597;48.328;7.932;2023-11-21T03:01:22;98999.22;;;8.86;100.00
32083;BME280;18597;48.328;7.932;2023-11-21T03:03:49;98989.25;;;8.88;100.00
32083;BME280;18597;48.328;7.932;2023-11-21T03:06:18;98995.28;;;8.90;100.00
32083;BME280;18597;48.328;7.932;2023-11-21T03:08:45;98989.69;;;8.93;100.00
32083;BME280;18597;48.328;7.932;2023-11-21T03:11:11;98996.41;;;8.87;100.00
32083;BME280;18597;48.328;7.932;2023-11-21T03:13:41;98983.91;;;8.78;100.00
32083;BME280;18597;48.328;7.932;2023-11-21T03:16:10;98990.22;;;8.77;100.00
32083;BME280;18597;48.328;7.932;2023-11-21T03:18:37;98983.31;;;8.75;100.00
32083;BME280;18597;48.328;7.932;2023-11-21T03:21:04;98983.78;;;8.80;100.00
32083;BME280;18597;48.328;7.932;2023-11-21T03:23:31;98983.53;;;8.93;100.00
32083;BME280;18597;48.328;7.932;2023-11-21T03:25:57;98986.31;;;8.91;100.00
32083;BME280;18597;48.328;7.932;2023-11-21T03:28:24;98990.84;;;9.00;100.00
32083;BME280;18597;48.328;7.932;2023-11-21T03:30:49;98989.31;;;9.07;100.00
32083;BME280;18597;48.328;7.932;2023-11-21T03:33:15;98994.06;;;8.94;100.00
32083;BME280;18597;48.328;7.932;2023-11-21T03:35:41;98989.13;;;8.99;100.00
32083;BME280;18597;48.328;7.932;2023-11-21T03:38:08;98983.53;;;8.93;100.00
32083;BME280;18597;48.328;7.932;2023-11-21T03:40:35;98979.75;;;8.95;100.00
32083;BME280;18597;48.328;7.932;2023-11-21T03:43:01;98990.94;;;8.89;100.00
32083;BME280;18597;48.328;7.932;2023-11-21T03:45:27;98993.75;;;8.97;100.00
32083;BME280;18597;48.328;7.932;2023-11-21T03:47:52;98997.66;;;8.83;100.00
32083;BME280;18597;48.328;7.932;2023-11-21T03:50:18;99000.53;;;9.01;100.00
32083;BME280;18597;48.328;7.932;2023-11-21T03:52:44;99010.94;;;8.74;100.00
32083;BME280;18597;48.328;7.932;2023-11-21T03:55:10;99012.03;;;8.61;100.00
32083;BME280;18597;48.328;7.932;2023-11-21T03:57:36;99020.75;;;8.73;100.00
32083;BME280;18597;48.328;7.932;2023-11-21T04:00:03;99015.81;;;8.69;100.00
32083;BME280;18597;48.328;7.932;2023-11-21T04:02:34;99015.78;;;8.59;100.00
32083;BME280;18597;48.328;7.932;2023-11-21T04:05:00;99012.19;;;8.70;100.00
32083;BME280;18597;48.328;7.932;2023-11-21T04:07:26;99020.41;;;8.57;100.00
32083;BME280;18597;48.328;7.932;2023-11-21T04:09:52;99024.28;;;8.53;100.00
32083;BME280;18597;48.328;7.932;2023-11-21T04:12:19;99028.91;;;8.51;100.00
32083;BME280;18597;48.328;7.932;2023-11-21T04:14:45;99023.28;;;8.44;100.00
32083;BME280;18597;48.328;7.932;2023-11-21T04:17:11;99029.44;;;8.45;100.00
32083;BME280;18597;48.328;7.932;2023-11-21T04:19:37;99031.84;;;8.48;100.00
32083;BME280;18597;48.328;7.932;2023-11-21T04:22:03;99026.63;;;8.46;100.00
32083;BME280;18597;48.328;7.932;2023-11-21T04:24:30;99027.44;;;8.37;100.00
32083;BME280;18597;48.328;7.932;2023-11-21T04:26:56;99034.19;;;8.41;100.00
32083;BME280;18597;48.328;7.932;2023-11-21T04:29:21;99032.63;;;8.39;100.00
32083;BME280;18597;48.328;7.932;2023-11-21T04:31:48;99041.59;;;8.38;100.00
32083;BME280;18597;48.328;7.932;2023-11-21T04:34:15;99041.47;;;8.39;100.00
32083;BME280;18597;48.328;7.932;2023-11-21T04:36:40;99042.44;;;8.38;100.00
32083;BME280;18597;48.328;7.932;2023-11-21T04:39:06;99050.31;;;8.40;100.00
32083;BME280;18597;48.328;7.932;2023-11-21T04:41:33;99042.44;;;8.38;100.00
32083;BME280;18597;48.328;7.932;2023-11-21T04:43:59;99057.19;;;8.42;100.00
32083;BME280;18597;48.328;7.932;2023-11-21T04:46:26;99057.31;;;8.41;100.00
32083;BME280;18597;48.328;7.932;2023-11-21T04:48:52;99056.38;;;8.51;100.00
32083;BME280;18597;48.328;7.932;2023-11-21T04:51:18;99065.16;;;8.42;100.00
32083;BME280;18597;48.328;7.932;2023-11-21T04:53:43;99063.47;;;8.41;100.00
32083;BME280;18597;48.328;7.932;2023-11-21T04:56:09;99069.03;;;8.38;100.00
32083;BME280;18597;48.328;7.932;2023-11-21T04:58:35;99064.69;;;8.37;100.00
32083;BME280;18597;48.328;7.932;2023-11-21T05:01:01;99063.19;;;8.44;100.00
32083;BME280;18597;48.328;7.932;2023-11-21T05:03:27;99054.78;;;8.39;100.00
32083;BME280;18597;48.328;7.932;2023-11-21T05:05:55;99060.53;;;8.44;100.00
32083;BME280;18597;48.328;7.932;2023-11-21T05:08:21;99056.31;;;8.63;100.00
32083;BME280;18597;48.328;7.932;2023-11-21T05:10:48;99060.16;;;8.49;100.00
32083;BME280;18597;48.328;7.932;2023-11-21T05:13:14;99066.75;;;8.33;100.00
32083;BME280;18597;48.328;7.932;2023-11-21T05:15:43;99068.72;;;8.31;100.00
32083;BME280;18597;48.328;7.932;2023-11-21T05:18:09;99075.97;;;8.29;100.00
32083;BME280;18597;48.328;7.932;2023-11-21T05:20:36;99069.66;;;8.42;100.00
32083;BME280;18597;48.328;7.932;2023-11-21T05:23:03;99078.78;;;8.49;100.00
32083;BME280;18597;48.328;7.932;2023-11-21T05:25:29;99074.31;;;8.49;100.00
32083;BME280;18597;48.328;7.932;2023-11-21T05:27:55;99072.03;;;8.45;100.00
32083;BME280;18597;48.328;7.932;2023-11-21T05:30:21;99078.47;;;8.42;100.00
32083;BME280;18597;48.328;7.932;2023-11-21T05:32:47;99072.88;;;8.45;100.00
32083;BME280;18597;48.328;7.932;2023-11-21T05:35:15;99075.84;;;8.31;100.00
32083;BME280;18597;48.328;7.932;2023-11-21T05:37:42;99083.81;;;8.31;100.00
32083;BME280;18597;48.328;7.932;2023-11-21T05:40:09;99081.50;;;8.38;100.00
32083;BME280;18597;48.328;7.932;2023-11-21T05:42:35;99082.13;;;8.41;100.00
32083;BME280;18597;48.328;7.932;2023-11-21T05:45:04;99084.56;;;8.33;100.00
32083;BME280;18597;48.328;7.932;2023-11-21T05:47:38;99083.72;;;8.32;100.00
32083;BME280;18597;48.328;7.932;2023-11-21T05:50:08;99091.59;;;8.23;100.00
32083;BME280;18597;48.328;7.932;2023-11-21T05:52:36;99093.06;;;8.27;100.00
32083;BME280;18597;48.328;7.932;2023-11-21T05:55:03;99092.34;;;8.25;100.00
32083;BME280;18597;48.328;7.932;2023-11-21T05:57:34;99099.78;;;8.31;100.00
32083;BME280;18597;48.328;7.932;2023-11-21T06:00:05;99094.28;;;8.23;100.00
32083;BME280;18597;48.328;7.932;2023-11-21T06:02:38;99095.38;;;8.20;100.00
32083;BME280;18597;48.328;7.932;2023-11-21T06:05:06;99098.78;;;8.43;100.00
32083;BME280;18597;48.328;7.932;2023-11-21T06:07:32;99096.69;;;8.26;100.00
32083;BME280;18597;48.328;7.932;2023-11-21T06:09:57;99098.50;;;8.25;100.00
32083;BME280;18597;48.328;7.932;2023-11-21T06:12:23;99105.19;;;8.20;100.00
32083;BME280;18597;48.328;7.932;2023-11-21T06:14:49;99112.00;;;8.13;100.00
32083;BME280;18597;48.328;7.932;2023-11-21T06:17:15;99102.69;;;8.07;100.00
32083;BME280;18597;48.328;7.932;2023-11-21T06:19:41;99112.47;;;8.18;100.00
32083;BME280;18597;48.328;7.932;2023-11-21T06:22:07;99122.31;;;8.27;100.00
32083;BME280;18597;48.328;7.932;2023-11-21T06:24:33;99117.78;;;8.18;100.00
32083;BME280;18597;48.328;7.932;2023-11-21T06:27:00;99125.03;;;8.16;100.00
32083;BME280;18597;48.328;7.932;2023-11-21T06:29:28;99122.00;;;8.20;100.00
32083;BME280;18597;48.328;7.932;2023-11-21T06:31:54;99130.56;;;8.24;100.00
32083;BME280;18597;48.328;7.932;2023-11-21T06:34:21;99129.47;;;8.26;100.00
32083;BME280;18597;48.328;7.932;2023-11-21T06:36:47;99134.44;;;8.20;100.00
32083;BME280;18597;48.328;7.932;2023-11-21T06:39:13;99135.56;;;8.17;100.00
32083;BME280;18597;48.328;7.932;2023-11-21T06:41:40;99138.22;;;8.17;100.00
32083;BME280;18597;48.328;7.932;2023-11-21T06:44:06;99134.72;;;8.17;100.00
32083;BME280;18597;48.328;7.932;2023-11-21T06:46:34;99139.69;;;8.31;100.00
32083;BME280;18597;48.328;7.932;2023-11-21T06:49:00;99145.28;;;8.28;100.00
32083;BME280;18597;48.328;7.932;2023-11-21T06:51:26;99143.47;;;8.28;100.00
32083;BME280;18597;48.328;7.932;2023-11-21T06:53:51;99146.66;;;8.22;100.00
32083;BME280;18597;48.328;7.932;2023-11-21T06:56:18;99146.91;;;8.19;100.00
32083;BME280;18597;48.328;7.932;2023-11-21T06:58:46;99151.88;;;8.24;100.00
32083;BME280;18597;48.328;7.932;2023-11-21T07:01:13;99152.44;;;8.27;100.00
32083;BME280;18597;48.328;7.932;2023-11-21T07:03:39;99161.25;;;8.28;100.00
32083;BME280;18597;48.328;7.932;2023-11-21T07:06:07;99163.09;;;8.27;100.00
32083;BME280;18597;48.328;7.932;2023-11-21T07:08:33;99158.69;;;8.38;100.00
32083;BME280;18597;48.328;7.932;2023-11-21T07:10:59;99158.22;;;8.32;100.00
32083;BME280;18597;48.328;7.932;2023-11-21T07:13:25;99167.53;;;8.38;100.00
32083;BME280;18597;48.328;7.932;2023-11-21T07:15:51;99161.72;;;8.33;100.00
32083;BME280;18597;48.328;7.932;2023-11-21T07:18:17;99170.47;;;8.35;100.00
32083;BME280;18597;48.328;7.932;2023-11-21T07:20:43;99176.63;;;8.36;100.00
32083;BME280;18597;48.328;7.932;2023-11-21T07:23:09;99177.81;;;8.43;100.00
32083;BME280;18597;48.328;7.932;2023-11-21T07:25:36;99174.22;;;8.53;100.00
32083;BME280;18597;48.328;7.932;2023-11-21T07:28:02;99183.19;;;8.52;100.00
32083;BME280;18597;48.328;7.932;2023-11-21T07:30:28;99185.44;;;8.36;100.00
32083;BME280;18597;48.328;7.932;2023-11-21T07:32:54;99182.56;;;8.39;100.00
32083;BME280;18597;48.328;7.932;2023-11-21T07:35:21;99192.41;;;8.48;100.00
32083;BME280;18597;48.328;7.932;2023-11-21T07:37:46;99189.91;;;8.47;100.00
32083;BME280;18597;48.328;7.932;2023-11-21T07:40:14;99193.59;;;8.55;100.00
32083;BME280;18597;48.328;7.932;2023-11-21T07:42:41;99198.00;;;8.66;100.00
32083;BME280;18597;48.328;7.932;2023-11-21T07:45:08;99192.94;;;8.63;100.00
32083;BME280;18597;48.328;7.932;2023-11-21T07:47:34;99198.06;;;8.76;100.00
32083;BME280;18597;48.328;7.932;2023-11-21T07:50:03;99201.31;;;8.79;100.00
32083;BME280;18597;48.328;7.932;2023-11-21T07:52:28;99202.88;;;8.82;100.00
32083;BME280;18597;48.328;7.932;2023-11-21T07:54:54;99201.97;;;8.93;100.00
32083;BME280;18597;48.328;7.932;2023-11-21T07:57:20;99196.69;;;9.02;100.00
32083;BME280;18597;48.328;7.932;2023-11-21T07:59:46;99210.91;;;8.92;100.00
32083;BME280;18597;48.328;7.932;2023-11-21T08:02:12;99212.31;;;8.86;100.00
32083;BME280;18597;48.328;7.932;2023-11-21T08:04:38;99213.34;;;8.74;100.00
32083;BME280;18597;48.328;7.932;2023-11-21T08:07:04;99214.50;;;8.81;100.00
32083;BME280;18597;48.328;7.932;2023-11-21T08:09:29;99208.00;;;8.74;100.00
32083;BME280;18597;48.328;7.932;2023-11-21T08:11:56;99211.97;;;8.79;100.00
32083;BME280;18597;48.328;7.932;2023-11-21T08:14:22;99210.16;;;8.80;100.00
32083;BME280;18597;48.328;7.932;2023-11-21T08:16:51;99217.13;;;8.92;100.00
32083;BME280;18597;48.328;7.932;2023-11-21T08:19:16;99216.25;;;8.92;100.00
32083;BME280;18597;48.328;7.932;2023-11-21T08:21:44;99218.53;;;8.96;100.00
32083;BME280;18597;48.328;7.932;2023-11-21T08:24:11;99220.16;;;9.08;100.00
32083;BME280;18597;48.328;7.932;2023-11-21T08:26:37;99223.53;;;9.10;100.00
32083;BME280;18597;48.328;7.932;2023-11-21T08:29:03;99221.50;;;9.24;100.00
32083;BME280;18597;48.328;7.932;2023-11-21T08:31:29;99225.31;;;9.31;100.00
32083;BME280;18597;48.328;7.932;2023-11-21T08:33:55;99231.63;;;9.30;100.00
32083;BME280;18597;48.328;7.932;2023-11-21T08:36:22;99234.72;;;9.35;100.00
32083;BME280;18597;48.328;7.932;2023-11-21T08:38:50;99239.53;;;9.41;100.00
32083;BME280;18597;48.328;7.932;2023-11-21T08:41:18;99233.38;;;9.40;100.00
32083;BME280;18597;48.328;7.932;2023-11-21T08:43:49;99236.31;;;9.37;100.00
32083;BME280;18597;48.328;7.932;2023-11-21T08:46:16;99239.50;;;9.31;100.00
32083;BME280;18597;48.328;7.932;2023-11-21T08:48:43;99242.31;;;9.30;100.00
32083;BME280;18597;48.328;7.932;2023-11-21T08:51:11;99237.25;;;9.36;100.00
32083;BME280;18597;48.328;7.932;2023-11-21T08:53:37;99239.06;;;9.36;100.00
32083;BME280;18597;48.328;7.932;2023-11-21T08:56:04;99239.69;;;9.39;100.00
32083;BME280;18597;48.328;7.932;2023-11-21T08:58:31;99240.75;;;9.37;100.00
32083;BME280;18597;48.328;7.932;2023-11-21T09:00:58;99237.41;;;9.35;100.00
32083;BME280;18597;48.328;7.932;2023-11-21T09:03:24;99247.06;;;9.36;100.00
32083;BME280;18597;48.328;7.932;2023-11-21T09:05:50;99245.91;;;9.29;100.00
32083;BME280;18597;48.328;7.932;2023-11-21T09:08:16;99241.56;;;9.28;100.00
32083;BME280;18597;48.328;7.932;2023-11-21T09:10:42;99247.34;;;9.33;100.00
32083;BME280;18597;48.328;7.932;2023-11-21T09:13:10;99251.25;;;9.29;100.00
32083;BME280;18597;48.328;7.932;2023-11-21T09:15:36;99243.44;;;9.37;100.00
32083;BME280;18597;48.328;7.932;2023-11-21T09:18:03;99251.31;;;9.38;100.00
32083;BME280;18597;48.328;7.932;2023-11-21T09:20:28;99254.03;;;9.48;100.00
32083;BME280;18597;48.328;7.932;2023-11-21T09:22:54;99263.16;;;9.45;100.00
32083;BME280;18597;48.328;7.932;2023-11-21T09:25:21;99265.91;;;9.44;100.00
32083;BME280;18597;48.328;7.932;2023-11-21T09:27:48;99265.63;;;9.37;100.00
32083;BME280;18597;48.328;7.932;2023-11-21T09:30:14;99259.66;;;9.24;100.00
32083;BME280;18597;48.328;7.932;2023-11-21T09:32:40;99267.00;;;9.11;100.00
32083;BME280;18597;48.328;7.932;2023-11-21T09:35:06;99267.59;;;9.14;100.00
32083;BME280;18597;48.328;7.932;2023-11-21T09:37:35;99263.56;;;9.20;100.00
32083;BME280;18597;48.328;7.932;2023-11-21T09:40:01;99271.88;;;9.27;100.00
32083;BME280;18597;48.328;7.932;2023-11-21T09:42:36;99284.22;;;9.28;100.00
32083;BME280;18597;48.328;7.932;2023-11-21T09:45:21;99281.97;;;9.23;100.00
32083;BME280;18597;48.328;7.932;2023-11-21T09:47:50;99280.13;;;9.24;100.00
32083;BME280;18597;48.328;7.932;2023-11-21T09:50:18;99279.53;;;9.20;100.00
32083;BME280;18597;48.328;7.932;2023-11-21T09:53:13;99277.78;;;9.30;100.00
32083;BME280;18597;48.328;7.932;2023-11-21T09:55:45;99274.06;;;9.42;100.00
32083;BME280;18597;48.328;7.932;2023-11-21T09:58:14;99282.72;;;9.35;100.00
32083;BME280;18597;48.328;7.932;2023-11-21T10:00:45;99287.06;;;9.36;100.00
32083;BME280;18597;48.328;7.932;2023-11-21T10:03:12;99282.47;;;9.38;100.00
32083;BME280;18597;48.328;7.932;2023-11-21T10:05:39;99282.47;;;9.38;100.00
32083;BME280;18597;48.328;7.932;2023-11-21T10:08:09;99287.81;;;9.38;100.00
32083;BME280;18597;48.328;7.932;2023-11-21T10:10:37;99287.84;;;9.48;100.00
32083;BME280;18597;48.328;7.932;2023-11-21T10:13:05;99283.81;;;9.53;100.00
32083;BME280;18597;48.328;7.932;2023-11-21T10:15:34;99294.19;;;9.56;100.00
32083;BME280;18597;48.328;7.932;2023-11-21T10:18:02;99293.81;;;9.61;100.00
32083;BME280;18597;48.328;7.932;2023-11-21T10:20:30;99297.56;;;9.58;100.00
32083;BME280;18597;48.328;7.932;2023-11-21T10:22:57;99295.75;;;9.59;100.00
32083;BME280;18597;48.328;7.932;2023-11-21T10:25:22;99306.50;;;9.48;100.00
32083;BME280;18597;48.328;7.932;2023-11-21T10:27:49;99303.56;;;9.51;100.00
32083;BME280;18597;48.328;7.932;2023-11-21T10:30:17;99291.25;;;9.59;100.00
32083;BME280;18597;48.328;7.932;2023-11-21T10:32:44;99286.91;;;9.58;100.00
32083;BME280;18597;48.328;7.932;2023-11-21T10:35:10;99284.69;;;9.63;100.00
32083;BME280;18597;48.328;7.932;2023-11-21T10:37:37;99289.75;;;9.66;100.00
32083;BME280;18597;48.328;7.932;2023-11-21T10:40:08;99292.66;;;9.54;100.00
32083;BME280;18597;48.328;7.932;2023-11-21T10:42:39;99293.00;;;9.39;100.00
32083;BME280;18597;48.328;7.932;2023-11-21T10:45:06;99286.38;;;9.34;100.00
32083;BME280;18597;48.328;7.932;2023-11-21T10:47:42;99295.91;;;9.36;100.00
32083;BME280;18597;48.328;7.932;2023-11-21T10:50:09;99293.84;;;9.40;100.00
32083;BME280;18597;48.328;7.932;2023-11-21T10:52:39;99303.06;;;9.36;100.00
32083;BME280;18597;48.328;7.932;2023-11-21T10:55:17;99295.19;;;9.34;100.00
32083;BME280;18597;48.328;7.932;2023-11-21T10:57:48;99299.88;;;9.42;100.00
32083;BME280;18597;48.328;7.932;2023-11-21T11:00:17;99296.88;;;9.35;100.00
32083;BME280;18597;48.328;7.932;2023-11-21T11:02:52;99292.53;;;9.34;100.00
32083;BME280;18597;48.328;7.932;2023-11-21T11:05:22;99306.53;;;9.27;100.00
32083;BME280;18597;48.328;7.932;2023-11-21T11:07:56;99305.53;;;9.28;100.00
32083;BME280;18597;48.328;7.932;2023-11-21T11:10:27;99307.13;;;9.30;100.00
32083;BME280;18597;48.328;7.932;2023-11-21T11:12:56;99302.16;;;9.26;100.00
32083;BME280;18597;48.328;7.932;2023-11-21T11:15:24;99304.00;;;9.25;100.00
32083;BME280;18597;48.328;7.932;2023-11-21T11:17:51;99302.63;;;9.31;100.00
32083;BME280;18597;48.328;7.932;2023-11-21T11:20:17;99310.63;;;9.31;100.00
32083;BME280;18597;48.328;7.932;2023-11-21T11:27:06;99310.34;;;9.34;100.00
32083;BME280;18597;48.328;7.932;2023-11-21T11:29:44;99318.94;;;9.37;100.00
32083;BME280;18597;48.328;7.932;2023-11-21T11:32:53;99312.69;;;9.27;100.00
32083;BME280;18597;48.328;7.932;2023-11-21T11:35:52;99304.00;;;9.25;100.00
32083;BME280;18597;48.328;7.932;2023-11-21T11:38:22;99305.94;;;9.23;100.00
32083;BME280;18597;48.328;7.932;2023-11-21T11:40:53;99313.34;;;9.20;100.00
32083;BME280;18597;48.328;7.932;2023-11-21T11:43:27;99302.81;;;9.18;100.00
32083;BME280;18597;48.328;7.932;2023-11-21T11:45:57;99305.34;;;9.20;100.00
32083;BME280;18597;48.328;7.932;2023-11-21T11:48:25;99297.22;;;9.21;100.00
32083;BME280;18597;48.328;7.932;2023-11-21T11:51:13;99302.44;;;9.23;100.00
32083;BME280;18597;48.328;7.932;2023-11-21T11:53:42;99305.47;;;9.60;100.00
32083;BME280;18597;48.328;7.932;2023-11-21T11:56:29;99315.81;;;9.84;100.00
32083;BME280;18597;48.328;7.932;2023-11-21T11:59:00;99311.13;;;10.07;100.00
32083;BME280;18597;48.328;7.932;2023-11-21T12:01:29;99314.00;;;10.24;100.00
32083;BME280;18597;48.328;7.932;2023-11-21T12:04:23;99319.66;;;10.41;100.00
32083;BME280;18597;48.328;7.932;2023-11-21T12:06:52;99314.06;;;10.53;100.00
32083;BME280;18597;48.328;7.932;2023-11-21T12:09:21;99319.25;;;10.55;100.00
32083;BME280;18597;48.328;7.932;2023-11-21T12:11:48;99310.56;;;10.53;100.00
32083;BME280;18597;48.328;7.932;2023-11-21T12:14:15;99303.94;;;10.57;100.00
32083;BME280;18597;48.328;7.932;2023-11-21T12:16:42;99310.69;;;10.61;100.00
32083;BME280;18597;48.328;7.932;2023-11-21T12:19:11;99312.78;;;10.57;100.00
32083;BME280;18597;48.328;7.932;2023-11-21T12:21:37;99313.38;;;10.61;100.00
32083;BME280;18597;48.328;7.932;2023-11-21T12:24:03;99317.19;;;10.68;100.00
32083;BME280;18597;48.328;7.932;2023-11-21T12:26:29;99323.09;;;10.81;100.00
32083;BME280;18597;48.328;7.932;2023-11-21T12:28:56;99319.44;;;10.92;100.00
32083;BME280;18597;48.328;7.932;2023-11-21T12:31:23;99318.44;;;10.93;100.00
32083;BME280;18597;48.328;7.932;2023-11-21T12:33:49;99322.69;;;10.96;100.00
32083;BME280;18597;48.328;7.932;2023-11-21T12:36:16;99321.13;;;11.13;100.00
32083;BME280;18597;48.328;7.932;2023-11-21T12:38:42;99318.41;;;11.22;100.00
32083;BME280;18597;48.328;7.932;2023-11-21T12:41:09;99319.97;;;11.34;100.00
32083;BME280;18597;48.328;7.932;2023-11-21T12:43:36;99323.88;;;11.50;100.00
32083;BME280;18597;48.328;7.932;2023-11-21T12:46:07;99332.84;;;11.58;100.00
32083;BME280;18597;48.328;7.932;2023-11-21T12:48:37;99326.09;;;11.64;100.00
32083;BME280;18597;48.328;7.932;2023-11-21T12:51:06;99327.78;;;11.65;100.00
32083;BME280;18597;48.328;7.932;2023-11-21T12:53:32;99329.72;;;11.82;100.00
32083;BME280;18597;48.328;7.932;2023-11-21T12:56:10;99322.47;;;11.46;100.00
32083;BME280;18597;48.328;7.932;2023-11-21T12:58:38;99326.47;;;11.13;100.00
32083;BME280;18597;48.328;7.932;2023-11-21T13:01:06;99328.41;;;11.10;100.00
32083;BME280;18597;48.328;7.932;2023-11-21T13:03:38;99322.66;;;11.05;100.00
32083;BME280;18597;48.328;7.932;2023-11-21T13:06:05;99330.41;;;10.99;100.00
32083;BME280;18597;48.328;7.932;2023-11-21T13:08:33;99324.63;;;11.13;100.00